createdAt,value
2023-04-16T00:01:24.959Z,100.00
2023-04-16T00:03:51.690Z,100.00
2023-04-16T00:06:18.616Z,100.00
2023-04-16T00:08:44.990Z,100.00
2023-04-16T00:11:11.725Z,100.00
2023-04-16T00:13:38.144Z,100.00
2023-04-16T00:16:05.117Z,100.00
2023-04-16T00:18:32.056Z,100.00
2023-04-16T00:20:59.796Z,100.00
2023-04-16T00:23:26.221Z,100.00
2023-04-16T00:25:53.795Z,100.00
2023-04-16T00:28:20.330Z,100.00
2023-04-16T00:30:47.021Z,100.00
2023-04-16T00:33:13.513Z,100.00
2023-04-16T00:35:39.976Z,100.00
2023-04-16T00:38:06.409Z,100.00
2023-04-16T00:40:32.801Z,100.00
2023-04-16T00:42:59.175Z,100.00
2023-04-16T00:45:25.696Z,100.00
2023-04-16T00:47:52.139Z,100.00
2023-04-16T00:50:18.703Z,100.00
2023-04-16T00:52:50.334Z,100.00
2023-04-16T00:55:18.831Z,100.00
2023-04-16T00:57:46.505Z,100.00
2023-04-16T01:00:16.169Z,100.00
2023-04-16T01:02:42.863Z,100.00
2023-04-16T01:05:09.505Z,100.00
2023-04-16T01:07:35.895Z,100.00
2023-04-16T01:10:02.995Z,100.00
2023-04-16T01:12:29.516Z,100.00
2023-04-16T01:14:56.249Z,100.00
2023-04-16T01:17:22.715Z,100.00
2023-04-16T01:19:49.113Z,100.00
2023-04-16T01:22:16.279Z,100.00
2023-04-16T01:24:42.737Z,100.00
2023-04-16T01:27:09.129Z,100.00
2023-04-16T01:29:35.502Z,100.00
2023-04-16T01:32:02.007Z,100.00
2023-04-16T01:34:28.544Z,100.00
2023-04-16T01:36:55.507Z,100.00
2023-04-16T01:39:22.312Z,100.00
2023-04-16T01:41:48.765Z,100.00
2023-04-16T01:44:15.493Z,100.00
2023-04-16T01:46:42.915Z,100.00
2023-04-16T01:49:09.496Z,100.00
2023-04-16T01:51:36.165Z,100.00
2023-04-16T01:54:02.707Z,100.00
2023-04-16T01:56:29.405Z,100.00
2023-04-16T01:58:56.184Z,100.00
2023-04-16T02:01:22.931Z,100.00
2023-04-16T02:03:51.247Z,100.00
2023-04-16T02:06:17.763Z,100.00
2023-04-16T02:08:44.244Z,100.00
2023-04-16T02:11:10.968Z,100.00
2023-04-16T02:13:37.714Z,100.00
2023-04-16T02:16:04.449Z,100.00
2023-04-16T02:18:30.891Z,100.00
2023-04-16T02:20:59.974Z,100.00
2023-04-16T02:23:26.599Z,100.00
2023-04-16T02:25:53.033Z,100.00
2023-04-16T02:28:19.761Z,100.00
2023-04-16T02:30:46.138Z,100.00
2023-04-16T02:33:13.482Z,100.00
2023-04-16T02:35:40.702Z,100.00
2023-04-16T02:38:07.924Z,100.00
2023-04-16T02:40:34.387Z,100.00
2023-04-16T02:43:01.116Z,100.00
2023-04-16T02:45:27.562Z,100.00
2023-04-16T02:47:54.312Z,100.00
2023-04-16T02:50:20.806Z,100.00
2023-04-16T02:52:48.829Z,100.00
2023-04-16T02:55:15.296Z,100.00
2023-04-16T02:57:42.517Z,100.00
2023-04-16T03:00:09.781Z,100.00
2023-04-16T03:02:36.674Z,100.00
2023-04-16T03:05:03.836Z,100.00
2023-04-16T03:07:30.406Z,100.00
2023-04-16T03:09:56.934Z,100.00
2023-04-16T03:12:23.365Z,100.00
2023-04-16T03:14:51.760Z,100.00
2023-04-16T03:17:18.193Z,100.00
2023-04-16T03:19:44.622Z,100.00
2023-04-16T03:22:11.083Z,100.00
2023-04-16T03:24:38.179Z,100.00
2023-04-16T03:27:04.575Z,100.00
2023-04-16T03:29:31.269Z,100.00
2023-04-16T03:31:57.691Z,100.00
2023-04-16T03:34:24.253Z,100.00
2023-04-16T03:36:50.631Z,100.00
2023-04-16T03:39:17.412Z,100.00
2023-04-16T03:41:43.783Z,100.00
2023-04-16T03:44:10.432Z,100.00
2023-04-16T03:46:36.893Z,100.00
2023-04-16T03:49:03.456Z,100.00
2023-04-16T03:51:29.812Z,100.00
2023-04-16T03:53:56.222Z,100.00
2023-04-16T03:56:22.706Z,100.00
2023-04-16T03:58:49.380Z,100.00
2023-04-16T04:01:15.737Z,100.00
2023-04-16T04:03:42.478Z,100.00
2023-04-16T04:06:09.497Z,100.00
2023-04-16T04:08:36.219Z,100.00
2023-04-16T04:11:02.593Z,100.00
2023-04-16T04:13:29.227Z,100.00
2023-04-16T04:15:55.691Z,100.00
2023-04-16T04:18:22.495Z,100.00
2023-04-16T04:20:48.887Z,100.00
2023-04-16T04:23:15.814Z,100.00
2023-04-16T04:25:42.184Z,100.00
2023-04-16T04:28:08.565Z,100.00
2023-04-16T04:30:36.264Z,100.00
2023-04-16T04:33:02.795Z,100.00
2023-04-16T04:35:29.335Z,100.00
2023-04-16T04:37:55.763Z,100.00
2023-04-16T04:40:22.340Z,100.00
2023-04-16T04:42:49.055Z,100.00
2023-04-16T04:45:16.089Z,100.00
2023-04-16T04:47:42.540Z,100.00
2023-04-16T04:50:09.483Z,100.00
2023-04-16T04:52:35.885Z,100.00
2023-04-16T04:55:02.375Z,100.00
2023-04-16T04:57:28.761Z,100.00
2023-04-16T04:59:55.193Z,100.00
2023-04-16T05:02:21.644Z,100.00
2023-04-16T05:04:48.157Z,100.00
2023-04-16T05:07:14.566Z,100.00
2023-04-16T05:09:41.056Z,100.00
2023-04-16T05:12:07.523Z,100.00
2023-04-16T05:14:34.064Z,100.00
2023-04-16T05:17:01.009Z,100.00
2023-04-16T05:19:27.413Z,100.00
2023-04-16T05:21:54.370Z,100.00
2023-04-16T05:24:21.154Z,100.00
2023-04-16T05:26:47.512Z,100.00
2023-04-16T05:29:13.867Z,100.00
2023-04-16T05:31:40.320Z,100.00
2023-04-16T05:34:06.728Z,100.00
2023-04-16T05:36:33.075Z,100.00
2023-04-16T05:38:59.466Z,100.00
2023-04-16T05:41:25.875Z,100.00
2023-04-16T05:43:52.244Z,100.00
2023-04-16T05:46:18.797Z,100.00
2023-04-16T05:48:45.185Z,100.00
2023-04-16T05:51:11.978Z,100.00
2023-04-16T05:53:38.342Z,100.00
2023-04-16T05:56:05.789Z,100.00
2023-04-16T05:58:32.216Z,100.00
2023-04-16T06:00:58.952Z,100.00
2023-04-16T06:03:25.435Z,100.00
2023-04-16T06:05:52.135Z,100.00
2023-04-16T06:08:18.766Z,100.00
2023-04-16T06:10:48.982Z,100.00
2023-04-16T06:13:16.151Z,100.00
2023-04-16T06:15:42.575Z,100.00
2023-04-16T06:18:09.076Z,100.00
2023-04-16T06:20:36.205Z,100.00
2023-04-16T06:23:02.645Z,100.00
2023-04-16T06:25:29.069Z,100.00
2023-04-16T06:27:55.652Z,100.00
2023-04-16T06:30:22.068Z,100.00
2023-04-16T06:32:49.403Z,100.00
2023-04-16T06:35:16.561Z,100.00
2023-04-16T06:37:42.935Z,100.00
2023-04-16T06:40:09.825Z,100.00
2023-04-16T06:42:36.526Z,100.00
2023-04-16T06:45:03.035Z,100.00
2023-04-16T06:47:29.835Z,100.00
2023-04-16T06:49:56.292Z,100.00
2023-04-16T06:52:22.986Z,100.00
2023-04-16T06:54:49.411Z,100.00
2023-04-16T06:57:17.080Z,100.00
2023-04-16T06:59:43.446Z,100.00
2023-04-16T07:02:13.252Z,100.00
2023-04-16T07:04:39.695Z,100.00
2023-04-16T07:07:06.267Z,100.00
2023-04-16T07:09:32.625Z,100.00
2023-04-16T07:11:59.025Z,100.00
2023-04-16T07:14:25.472Z,100.00
2023-04-16T07:16:52.168Z,100.00
2023-04-16T07:19:18.623Z,100.00
2023-04-16T07:21:45.121Z,100.00
2023-04-16T07:24:11.789Z,100.00
2023-04-16T07:26:38.240Z,100.00
2023-04-16T07:29:04.694Z,100.00
2023-04-16T07:31:31.487Z,100.00
2023-04-16T07:33:58.465Z,100.00
2023-04-16T07:36:25.169Z,100.00
2023-04-16T07:38:51.533Z,100.00
2023-04-16T07:41:18.003Z,98.32
2023-04-16T07:43:44.386Z,95.87
2023-04-16T07:46:11.003Z,96.18
2023-04-16T07:48:37.394Z,93.45
2023-04-16T07:51:03.793Z,93.12
2023-04-16T07:53:30.219Z,96.95
2023-04-16T07:55:56.576Z,98.96
2023-04-16T07:58:23.367Z,100.00
2023-04-16T08:00:50.962Z,100.00
2023-04-16T08:03:18.847Z,99.64
2023-04-16T08:05:45.608Z,99.92
2023-04-16T08:08:11.952Z,99.11
2023-04-16T08:10:39.299Z,96.03
2023-04-16T08:13:05.890Z,95.51
2023-04-16T08:15:32.398Z,95.41
2023-04-16T08:17:59.657Z,95.97
2023-04-16T08:20:26.295Z,97.85
2023-04-16T08:22:54.813Z,96.67
2023-04-16T08:25:22.761Z,95.69
2023-04-16T08:27:49.245Z,95.21
2023-04-16T08:30:16.644Z,94.09
2023-04-16T08:32:43.625Z,95.85
2023-04-16T08:35:10.068Z,96.36
2023-04-16T08:37:36.440Z,95.42
2023-04-16T08:40:03.422Z,94.09
2023-04-16T08:42:38.051Z,95.24
2023-04-16T08:45:09.148Z,96.21
2023-04-16T08:47:39.686Z,96.76
2023-04-16T08:50:06.819Z,97.44
2023-04-16T08:52:38.100Z,96.28
2023-04-16T08:55:11.935Z,95.28
2023-04-16T08:57:51.164Z,95.79
2023-04-16T09:00:18.927Z,95.34
2023-04-16T09:02:46.609Z,94.67
2023-04-16T09:05:18.946Z,94.78
2023-04-16T09:07:46.772Z,93.79
2023-04-16T09:10:15.099Z,92.99
2023-04-16T09:12:44.792Z,92.89
2023-04-16T09:15:12.577Z,92.13
2023-04-16T09:17:40.213Z,91.31
2023-04-16T09:20:08.908Z,90.07
2023-04-16T09:22:36.007Z,89.70
2023-04-16T09:25:02.469Z,88.90
2023-04-16T09:27:30.300Z,88.08
2023-04-16T09:29:57.219Z,87.30
2023-04-16T09:32:28.003Z,88.99
2023-04-16T09:34:57.504Z,90.95
2023-04-16T09:37:24.693Z,91.28
2023-04-16T09:39:59.180Z,91.06
2023-04-16T09:42:28.019Z,91.17
2023-04-16T09:44:58.709Z,92.93
2023-04-16T09:47:39.393Z,91.34
2023-04-16T09:50:06.953Z,90.40
2023-04-16T09:52:36.842Z,90.61
2023-04-16T09:55:03.391Z,90.13
2023-04-16T09:57:29.840Z,89.53
2023-04-16T10:00:04.568Z,88.23
2023-04-16T10:02:31.854Z,88.22
2023-04-16T10:05:01.405Z,88.13
2023-04-16T10:07:29.115Z,88.28
2023-04-16T10:09:56.322Z,89.50
2023-04-16T10:12:22.667Z,89.44
2023-04-16T10:14:50.442Z,88.79
2023-04-16T10:17:18.526Z,90.11
2023-04-16T10:19:45.974Z,89.70
2023-04-16T10:22:12.733Z,90.37
2023-04-16T10:24:41.246Z,90.33
2023-04-16T10:27:07.640Z,89.27
2023-04-16T10:29:35.149Z,89.06
2023-04-16T10:32:03.352Z,89.36
2023-04-16T10:34:31.308Z,89.11
2023-04-16T10:36:57.750Z,85.31
2023-04-16T10:39:27.081Z,85.25
2023-04-16T10:42:10.546Z,83.74
2023-04-16T10:44:37.361Z,83.62
2023-04-16T10:47:11.222Z,84.09
2023-04-16T10:49:37.696Z,85.96
2023-04-16T10:52:14.928Z,85.82
2023-04-16T10:54:41.779Z,85.00
2023-04-16T10:57:10.075Z,84.12
2023-04-16T10:59:39.132Z,84.49
2023-04-16T11:02:13.827Z,83.97
2023-04-16T11:04:43.417Z,84.83
2023-04-16T11:07:16.433Z,82.15
2023-04-16T11:10:05.070Z,80.06
2023-04-16T11:12:38.100Z,79.64
2023-04-16T11:15:16.177Z,80.89
2023-04-16T11:17:43.811Z,80.45
2023-04-16T11:20:19.623Z,78.80
2023-04-16T11:22:48.736Z,78.00
2023-04-16T11:25:25.261Z,77.17
2023-04-16T11:27:52.646Z,78.50
2023-04-16T11:30:27.726Z,78.34
2023-04-16T11:32:54.299Z,75.77
2023-04-16T11:35:20.957Z,75.82
2023-04-16T11:37:50.628Z,74.54
2023-04-16T11:40:17.031Z,75.49
2023-04-16T11:42:44.257Z,75.32
2023-04-16T11:45:12.106Z,76.12
2023-04-16T11:47:46.663Z,75.87
2023-04-16T11:50:23.081Z,74.57
2023-04-16T11:52:51.886Z,72.97
2023-04-16T11:55:18.881Z,73.51
2023-04-16T11:57:46.041Z,72.87
2023-04-16T12:00:14.159Z,72.51
2023-04-16T12:02:55.820Z,72.38
2023-04-16T12:05:48.736Z,72.47
2023-04-16T12:08:29.251Z,71.52
2023-04-16T12:10:56.279Z,68.91
2023-04-16T12:13:23.308Z,68.96
2023-04-16T12:15:51.285Z,71.47
2023-04-16T12:18:20.177Z,71.62
2023-04-16T12:20:47.360Z,70.26
2023-04-16T12:23:28.694Z,67.17
2023-04-16T12:25:56.374Z,69.55
2023-04-16T12:28:33.741Z,69.75
2023-04-16T12:31:01.491Z,70.33
2023-04-16T12:33:28.271Z,69.58
2023-04-16T12:35:54.893Z,70.57
2023-04-16T12:38:23.685Z,69.72
2023-04-16T12:40:51.687Z,69.05
2023-04-16T12:43:18.336Z,69.23
2023-04-16T12:45:44.786Z,69.74
2023-04-16T12:48:11.506Z,66.77
2023-04-16T12:50:39.660Z,68.10
2023-04-16T12:53:06.563Z,66.54
2023-04-16T12:55:32.998Z,68.94
2023-04-16T12:57:59.464Z,70.44
2023-04-16T13:00:26.239Z,70.08
2023-04-16T13:02:52.784Z,70.36
2023-04-16T13:05:19.632Z,71.40
2023-04-16T13:07:46.182Z,72.30
2023-04-16T13:10:13.110Z,72.98
2023-04-16T13:12:39.644Z,72.81
2023-04-16T13:15:06.554Z,72.91
2023-04-16T13:17:32.948Z,72.26
2023-04-16T13:19:59.602Z,72.00
2023-04-16T13:22:26.107Z,71.62
2023-04-16T13:24:52.520Z,72.21
2023-04-16T13:27:18.928Z,71.70
2023-04-16T13:29:46.130Z,71.25
2023-04-16T13:32:13.914Z,71.01
2023-04-16T13:34:40.692Z,70.62
2023-04-16T13:37:07.144Z,71.35
2023-04-16T13:39:33.790Z,70.39
2023-04-16T13:42:00.320Z,71.35
2023-04-16T13:44:26.739Z,72.05
2023-04-16T13:46:53.229Z,73.01
2023-04-16T13:49:19.689Z,75.22
2023-04-16T13:51:46.215Z,75.02
2023-04-16T13:54:13.163Z,75.52
2023-04-16T13:56:39.866Z,77.93
2023-04-16T13:59:06.364Z,81.15
2023-04-16T14:01:32.985Z,82.15
2023-04-16T14:04:05.937Z,81.68
2023-04-16T14:06:33.846Z,84.05
2023-04-16T14:09:00.395Z,85.05
2023-04-16T14:11:26.846Z,83.79
2023-04-16T14:13:53.639Z,84.21
2023-04-16T14:16:20.317Z,83.80
2023-04-16T14:18:47.318Z,81.73
2023-04-16T14:21:13.772Z,80.52
2023-04-16T14:23:40.348Z,75.28
2023-04-16T14:26:06.764Z,72.12
2023-04-16T14:28:33.309Z,72.87
2023-04-16T14:30:59.674Z,72.05
2023-04-16T14:33:26.866Z,70.10
2023-04-16T14:35:53.283Z,68.72
2023-04-16T14:38:19.743Z,67.29
2023-04-16T14:40:46.138Z,68.17
2023-04-16T14:43:12.794Z,68.84
2023-04-16T14:45:39.347Z,69.89
2023-04-16T14:48:06.541Z,70.32
2023-04-16T14:50:39.082Z,71.18
2023-04-16T14:53:05.952Z,72.98
2023-04-16T14:55:32.654Z,73.55
2023-04-16T14:57:59.721Z,73.70
2023-04-16T15:00:26.396Z,73.75
2023-04-16T15:02:54.217Z,73.08
2023-04-16T15:05:20.816Z,72.90
2023-04-16T15:07:47.491Z,72.26
2023-04-16T15:10:13.869Z,71.91
2023-04-16T15:12:40.451Z,71.03
2023-04-16T15:15:08.372Z,71.08
2023-04-16T15:17:34.958Z,71.39
2023-04-16T15:20:01.583Z,72.38
2023-04-16T15:22:28.556Z,73.18
2023-04-16T15:24:54.933Z,73.09
2023-04-16T15:27:21.317Z,72.34
2023-04-16T15:29:49.331Z,72.22
2023-04-16T15:32:15.760Z,73.28
2023-04-16T15:34:42.184Z,73.07
2023-04-16T15:37:09.611Z,72.34
2023-04-16T15:39:36.028Z,73.07
2023-04-16T15:42:07.086Z,73.49
2023-04-16T15:44:34.360Z,73.44
2023-04-16T15:47:01.076Z,72.88
2023-04-16T15:49:27.495Z,72.16
2023-04-16T15:51:54.529Z,71.34
2023-04-16T15:54:21.475Z,71.76
2023-04-16T15:56:47.948Z,71.98
2023-04-16T15:59:14.335Z,71.53
2023-04-16T16:01:40.878Z,71.71
2023-04-16T16:04:08.083Z,71.90
2023-04-16T16:06:35.033Z,71.93
2023-04-16T16:09:01.774Z,71.62
2023-04-16T16:11:28.250Z,71.53
2023-04-16T16:13:55.358Z,71.50
2023-04-16T16:16:21.885Z,72.14
2023-04-16T16:18:48.696Z,72.13
2023-04-16T16:21:15.077Z,72.41
2023-04-16T16:23:42.384Z,72.24
2023-04-16T16:26:09.227Z,72.84
2023-04-16T16:28:37.817Z,72.73
2023-04-16T16:31:06.022Z,72.74
2023-04-16T16:33:33.131Z,72.26
2023-04-16T16:35:59.539Z,71.96
2023-04-16T16:38:26.137Z,72.48
2023-04-16T16:40:52.586Z,72.41
2023-04-16T16:43:19.046Z,71.95
2023-04-16T16:45:46.463Z,72.47
2023-04-16T16:48:12.891Z,72.32
2023-04-16T16:50:39.852Z,72.51
2023-04-16T16:53:06.304Z,72.66
2023-04-16T16:55:32.757Z,72.30
2023-04-16T16:57:59.191Z,72.06
2023-04-16T17:00:25.939Z,71.91
2023-04-16T17:02:52.758Z,72.42
2023-04-16T17:05:19.904Z,72.72
2023-04-16T17:07:46.683Z,71.97
2023-04-16T17:10:19.777Z,72.08
2023-04-16T17:12:48.009Z,72.24
2023-04-16T17:15:15.000Z,72.47
2023-04-16T17:17:41.695Z,72.39
2023-04-16T17:20:12.377Z,72.52
2023-04-16T17:22:39.282Z,72.79
2023-04-16T17:25:07.691Z,73.19
2023-04-16T17:27:34.395Z,73.07
2023-04-16T17:30:02.402Z,72.78
2023-04-16T17:32:29.845Z,73.32
2023-04-16T17:34:56.584Z,73.69
2023-04-16T17:37:23.529Z,73.58
2023-04-16T17:39:50.405Z,73.86
2023-04-16T17:42:17.164Z,74.25
2023-04-16T17:44:43.986Z,74.47
2023-04-16T17:47:10.726Z,74.45
2023-04-16T17:49:37.527Z,74.82
2023-04-16T17:52:03.921Z,75.11
2023-04-16T17:54:31.391Z,75.40
2023-04-16T17:56:57.752Z,75.46
2023-04-16T17:59:24.205Z,76.33
2023-04-16T18:01:50.787Z,76.13
2023-04-16T18:04:17.903Z,76.55
2023-04-16T18:06:44.724Z,76.29
2023-04-16T18:09:12.019Z,76.68
2023-04-16T18:11:38.761Z,77.14
2023-04-16T18:14:05.250Z,77.22
2023-04-16T18:16:32.223Z,76.81
2023-04-16T18:18:59.044Z,77.39
2023-04-16T18:21:25.913Z,77.55
2023-04-16T18:23:52.312Z,77.48
2023-04-16T18:26:22.497Z,77.71
2023-04-16T18:28:49.333Z,77.83
2023-04-16T18:31:15.956Z,77.64
2023-04-16T18:33:54.260Z,78.12
2023-04-16T18:36:23.900Z,78.00
2023-04-16T18:39:01.048Z,78.29
2023-04-16T18:41:29.783Z,78.10
2023-04-16T18:43:56.340Z,78.33
2023-04-16T18:46:22.981Z,78.11
2023-04-16T18:48:49.477Z,78.72
2023-04-16T18:51:16.717Z,78.26
2023-04-16T18:53:44.365Z,78.67
2023-04-16T18:56:11.638Z,78.67
2023-04-16T18:58:38.149Z,79.13
2023-04-16T19:01:05.205Z,79.12
2023-04-16T19:03:32.111Z,79.36
2023-04-16T19:05:58.811Z,79.19
2023-04-16T19:08:25.295Z,79.29
2023-04-16T19:10:51.830Z,79.67
2023-04-16T19:13:18.436Z,79.84
2023-04-16T19:15:44.860Z,79.63
2023-04-16T19:18:11.255Z,79.71
2023-04-16T19:20:37.957Z,79.78
2023-04-16T19:23:05.645Z,80.26
2023-04-16T19:25:32.633Z,80.17
2023-04-16T19:27:59.398Z,80.00
2023-04-16T19:30:26.306Z,80.00
2023-04-16T19:32:55.136Z,80.17
2023-04-16T19:35:22.122Z,80.52
2023-04-16T19:37:48.586Z,80.87
2023-04-16T19:40:15.006Z,80.81
2023-04-16T19:42:41.400Z,80.66
2023-04-16T19:45:08.075Z,80.65
2023-04-16T19:47:34.750Z,81.02
2023-04-16T19:50:01.136Z,81.77
2023-04-16T19:52:27.736Z,82.28
2023-04-16T19:54:54.279Z,82.71
2023-04-16T19:57:20.672Z,82.26
2023-04-16T19:59:47.046Z,82.73
2023-04-16T20:02:13.732Z,83.34
2023-04-16T20:04:40.264Z,83.68
2023-04-16T20:07:06.635Z,83.69
2023-04-16T20:09:33.004Z,83.78
2023-04-16T20:11:59.591Z,84.14
2023-04-16T20:14:25.935Z,85.34
2023-04-16T20:16:53.327Z,85.14
2023-04-16T20:19:19.751Z,85.33
2023-04-16T20:21:46.175Z,85.73
2023-04-16T20:24:12.699Z,86.90
2023-04-16T20:26:39.089Z,88.17
2023-04-16T20:29:05.659Z,88.89
2023-04-16T20:31:32.390Z,89.31
2023-04-16T20:33:58.845Z,89.75
2023-04-16T20:36:26.247Z,89.85
2023-04-16T20:38:53.993Z,89.45
2023-04-16T20:41:21.046Z,89.88
2023-04-16T20:43:50.064Z,90.42
2023-04-16T20:46:17.450Z,90.76
2023-04-16T20:48:44.456Z,90.90
2023-04-16T20:51:10.853Z,91.75
2023-04-16T20:53:37.695Z,92.31
2023-04-16T20:56:04.384Z,92.44
2023-04-16T20:58:30.875Z,92.95
2023-04-16T21:00:57.858Z,93.06
2023-04-16T21:03:24.907Z,92.00
2023-04-16T21:05:55.707Z,92.04
2023-04-16T21:08:23.600Z,92.20
2023-04-16T21:10:51.839Z,91.96
2023-04-16T21:13:18.635Z,91.60
2023-04-16T21:15:45.621Z,91.94
2023-04-16T21:18:12.695Z,91.37
2023-04-16T21:20:39.993Z,91.64
2023-04-16T21:23:06.605Z,91.63
2023-04-16T21:25:33.531Z,91.99
2023-04-16T21:27:59.930Z,92.15
2023-04-16T21:30:26.408Z,92.63
2023-04-16T21:32:53.029Z,92.96
2023-04-16T21:35:19.501Z,93.37
2023-04-16T21:37:46.203Z,93.31
2023-04-16T21:40:12.660Z,93.49
2023-04-16T21:42:40.269Z,94.05
2023-04-16T21:45:10.694Z,94.39
2023-04-16T21:47:37.715Z,93.91
2023-04-16T21:50:04.647Z,94.33
2023-04-16T21:52:32.969Z,94.30
2023-04-16T21:55:00.199Z,94.13
2023-04-16T21:57:26.863Z,94.15
2023-04-16T21:59:53.304Z,94.11
2023-04-16T22:02:19.788Z,94.17
2023-04-16T22:04:46.282Z,94.45
2023-04-16T22:07:12.912Z,94.44
2023-04-16T22:09:40.341Z,94.58
2023-04-16T22:12:07.043Z,93.82
2023-04-16T22:14:38.328Z,93.69
2023-04-16T22:17:05.669Z,93.11
2023-04-16T22:19:32.134Z,92.44
2023-04-16T22:21:58.500Z,92.29
2023-04-16T22:24:24.886Z,92.67
2023-04-16T22:26:51.287Z,92.98
2023-04-16T22:29:17.664Z,92.04
2023-04-16T22:31:44.448Z,91.77
2023-04-16T22:34:10.842Z,91.06
2023-04-16T22:36:37.241Z,90.47
2023-04-16T22:39:08.306Z,90.52
2023-04-16T22:41:36.118Z,90.28
2023-04-16T22:44:02.727Z,90.65
2023-04-16T22:46:29.289Z,90.61
2023-04-16T22:48:55.667Z,91.05
2023-04-16T22:51:24.280Z,90.80
2023-04-16T22:53:51.833Z,91.06
2023-04-16T22:56:21.711Z,91.71
2023-04-16T22:58:51.278Z,91.97
2023-04-16T23:01:17.736Z,92.11
2023-04-16T23:03:44.260Z,92.64
2023-04-16T23:06:10.761Z,92.94
2023-04-16T23:08:37.442Z,93.19
2023-04-16T23:11:03.852Z,94.04
2023-04-16T23:13:30.244Z,94.57
2023-04-16T23:15:56.639Z,94.53
2023-04-16T23:18:23.393Z,94.14
2023-04-16T23:20:53.594Z,93.45
2023-04-16T23:23:20.038Z,93.84
2023-04-16T23:25:46.403Z,94.46
2023-04-16T23:28:12.810Z,95.44
2023-04-16T23:30:39.231Z,95.20
2023-04-16T23:33:05.642Z,95.01
2023-04-16T23:35:32.129Z,95.13
2023-04-16T23:37:58.597Z,95.13
2023-04-16T23:40:24.963Z,95.18
2023-04-16T23:42:51.605Z,95.08
2023-04-16T23:45:18.092Z,94.93
2023-04-16T23:47:44.810Z,95.21
2023-04-16T23:50:11.461Z,94.85
2023-04-16T23:52:37.849Z,94.80
2023-04-16T23:55:04.714Z,94.42
2023-04-16T23:57:31.452Z,94.14
2023-04-16T23:59:57.837Z,93.28
